Time,TemperatureF,DewpointF,PressureIn,WindDirection,WindDirectionDegrees,WindSpeedMPH,WindSpeedGustMPH,Humidity,HourlyPrecipIn,Conditions,Clouds,dailyrainin,SoftwareType,DateUTC
2013-06-11 00:00:00,83.1,57.7,29.80,ESE,106,17.0,19.0,42,0.00,,---,0.00,VWS V14.01,2013-06-11 05:00:00,
2013-06-11 00:05:00,83.1,57.7,29.80,SE,144,18.0,18.0,42,0.00,,---,0.00,VWS V14.01,2013-06-11 05:05:00,
2013-06-11 00:10:00,82.9,58.1,29.80,SE,138,10.0,18.0,43,0.00,,---,0.00,VWS V14.01,2013-06-11 05:10:00,
2013-06-11 00:15:00,82.7,58.0,29.81,South,169,13.0,18.0,43,0.00,,---,0.00,VWS V14.01,2013-06-11 05:15:00,
2013-06-11 00:20:00,82.5,57.8,29.80,SSE,149,12.0,18.0,43,0.00,,---,0.00,VWS V14.01,2013-06-11 05:20:00,
2013-06-11 00:25:00,82.3,58.2,29.80,SSE,156,11.0,18.0,44,0.00,,---,0.00,VWS V14.01,2013-06-11 05:25:00,
2013-06-11 00:30:00,82.0,58.0,29.80,SSE,156,11.0,13.0,44,0.00,,---,0.00,VWS V14.01,2013-06-11 05:30:00,
2013-06-11 00:35:00,81.4,58.7,29.81,SE,141,10.0,14.0,46,0.00,,---,0.00,VWS V14.01,2013-06-11 05:35:00,
2013-06-11 00:40:00,80.8,58.7,29.81,SE,139,12.0,14.0,47,0.00,,---,0.00,VWS V14.01,2013-06-11 05:40:00,
2013-06-11 00:46:00,80.3,58.2,29.81,SSE,150,7.0,15.0,47,0.00,,---,0.00,VWS V14.01,2013-06-11 05:46:00,
2013-06-11 00:51:00,80.2,58.2,29.81,SSE,163,11.0,15.0,47,0.00,,---,0.00,VWS V14.01,2013-06-11 05:51:00,
2013-06-11 00:56:00,80.3,57.7,29.81,SSE,167,13.0,15.0,46,0.00,,---,0.00,VWS V14.01,2013-06-11 05:56:00,
2013-06-11 01:01:00,80.5,57.8,29.80,SSE,158,10.0,12.0,46,0.00,,---,0.00,VWS V14.01,2013-06-11 06:01:00,
2013-06-11 01:06:00,80.6,57.3,29.80,SSE,152,9.0,16.0,45,0.00,,---,0.00,VWS V14.01,2013-06-11 06:06:00,
2013-06-11 01:11:00,80.6,57.3,29.81,SSE,150,9.0,16.0,45,0.00,,---,0.00,VWS V14.01,2013-06-11 06:11:00,
2013-06-11 01:16:00,80.7,56.8,29.80,SE,134,8.0,16.0,44,0.00,,---,0.00,VWS V14.01,2013-06-11 06:16:00,
2013-06-11 01:22:00,80.5,56.6,29.81,South,170,9.0,16.0,44,0.00,,---,0.00,VWS V14.01,2013-06-11 06:22:00,
2013-06-11 01:27:00,80.4,57.1,29.81,SSE,167,9.0,16.0,45,0.00,,---,0.00,VWS V14.01,2013-06-11 06:27:00,
2013-06-11 01:32:00,80.1,56.9,29.81,South,179,5.0,6.0,45,0.00,,---,0.00,VWS V14.01,2013-06-11 06:32:00,
2013-06-11 01:37:00,79.5,56.9,29.80,South,177,3.0,8.0,46,0.00,,---,0.00,VWS V14.01,2013-06-11 06:37:00,
2013-06-11 01:42:00,79.0,56.5,29.81,South,169,5.0,8.0,46,0.00,,---,0.00,VWS V14.01,2013-06-11 06:42:00,
2013-06-11 01:47:00,79.1,56.6,29.80,South,187,6.0,8.0,46,0.00,,---,0.00,VWS V14.01,2013-06-11 06:47:00,
2013-06-11 01:52:00,79.3,56.1,29.80,SSE,160,6.0,11.0,45,0.00,,---,0.00,VWS V14.01,2013-06-11 06:52:00,
2013-06-11 01:57:00,79.2,56.7,29.81,SSW,198,4.0,11.0,46,0.00,,---,0.00,VWS V14.01,2013-06-11 06:57:00,
2013-06-11 02:02:00,78.8,56.3,29.81,SSW,205,3.0,10.0,46,0.00,,---,0.00,VWS V14.01,2013-06-11 07:02:00,
2013-06-11 02:07:00,78.5,56.6,29.81,SSW,198,5.0,10.0,47,0.00,,---,0.00,VWS V14.01,2013-06-11 07:07:00,
2013-06-11 02:12:00,78.5,56.0,29.81,SE,146,7.0,10.0,46,0.00,,---,0.00,VWS V14.01,2013-06-11 07:12:00,
2013-06-11 02:17:00,78.6,56.1,29.81,South,188,4.0,10.0,46,0.00,,---,0.00,VWS V14.01,2013-06-11 07:17:00,
2013-06-11 02:22:00,78.2,56.3,29.81,SSW,211,3.0,10.0,47,0.00,,---,0.00,VWS V14.01,2013-06-11 07:22:00,
2013-06-11 02:27:00,77.4,56.8,29.81,SSW,204,2.0,10.0,49,0.00,,---,0.00,VWS V14.01,2013-06-11 07:27:00,
2013-06-11 02:32:00,76.7,56.7,29.81,SE,136,3.0,4.0,50,0.00,,---,0.00,VWS V14.01,2013-06-11 07:32:00,
2013-06-11 02:37:00,76.3,56.3,29.81,South,177,2.0,4.0,50,0.00,,---,0.00,VWS V14.01,2013-06-11 07:37:00,
2013-06-11 02:42:00,75.9,57.0,29.81,SSW,194,2.0,4.0,52,0.00,,---,0.00,VWS V14.01,2013-06-11 07:42:00,
2013-06-11 02:47:00,75.1,57.3,29.81,SW,221,1.0,4.0,54,0.00,,---,0.00,VWS V14.01,2013-06-11 07:47:00,
2013-06-11 02:53:00,74.5,57.3,29.81,SE,144,2.0,4.0,55,0.00,,---,0.00,VWS V14.01,2013-06-11 07:53:00,
2013-06-11 02:58:00,74.4,57.2,29.81,SE,139,3.0,4.0,55,0.00,,---,0.00,VWS V14.01,2013-06-11 07:58:00,
2013-06-11 03:03:00,74.2,57.0,29.81,SW,226,1.0,2.0,55,0.00,,---,0.00,VWS V14.01,2013-06-11 08:03:00,
2013-06-11 03:08:00,73.8,57.6,29.81,SSE,155,2.0,2.0,57,0.00,,---,0.00,VWS V14.01,2013-06-11 08:08:00,
2013-06-11 03:13:00,73.1,57.5,29.81,SE,139,2.0,2.0,58,0.00,,---,0.00,VWS V14.01,2013-06-11 08:13:00,
2013-06-11 03:18:00,72.9,56.8,29.80,SSE,148,3.0,5.0,57,0.00,,---,0.00,VWS V14.01,2013-06-11 08:18:00,
2013-06-11 03:23:00,73.3,56.7,29.80,South,172,4.0,6.0,56,0.00,,---,0.00,VWS V14.01,2013-06-11 08:23:00,
2013-06-11 03:28:00,73.3,56.7,29.80,SSE,151,4.0,6.0,56,0.00,,---,0.00,VWS V14.01,2013-06-11 08:28:00,
2013-06-11 03:33:00,73.3,56.7,29.80,SSE,160,4.0,6.0,56,0.00,,---,0.00,VWS V14.01,2013-06-11 08:33:00,
2013-06-11 03:38:00,73.1,57.0,29.80,South,184,2.0,6.0,57,0.00,,---,0.00,VWS V14.01,2013-06-11 08:38:00,
2013-06-11 03:43:00,72.6,57.0,29.80,SSE,154,3.0,6.0,58,0.00,,---,0.00,VWS V14.01,2013-06-11 08:43:00,
2013-06-11 03:48:00,72.5,56.9,29.80,SSW,201,3.0,6.0,58,0.00,,---,0.00,VWS V14.01,2013-06-11 08:48:00,
2013-06-11 03:53:00,72.3,57.2,29.80,SSE,156,6.0,6.0,59,0.00,,---,0.00,VWS V14.01,2013-06-11 08:53:00,
2013-06-11 03:58:00,72.4,56.8,29.80,SSE,153,4.0,6.0,58,0.00,,---,0.00,VWS V14.01,2013-06-11 08:58:00,
2013-06-11 04:04:00,72.5,56.4,29.80,SE,146,4.0,6.0,57,0.00,,---,0.00,VWS V14.01,2013-06-11 09:04:00,
2013-06-11 04:09:00,73.0,55.9,29.80,South,169,4.0,6.0,55,0.00,,---,0.00,VWS V14.01,2013-06-11 09:09:00,
2013-06-11 04:14:00,74.1,55.4,29.80,SE,145,6.0,11.0,52,0.00,,---,0.00,VWS V14.01,2013-06-11 09:14:00,
2013-06-11 04:19:00,75.4,55.5,29.80,SSE,155,8.0,11.0,50,0.00,,---,0.00,VWS V14.01,2013-06-11 09:19:00,
2013-06-11 04:24:00,76.0,55.5,29.80,SSE,151,9.0,11.0,49,0.00,,---,0.00,VWS V14.01,2013-06-11 09:24:00,
2013-06-11 04:29:00,76.4,55.3,29.80,SE,141,7.0,12.0,48,0.00,,---,0.00,VWS V14.01,2013-06-11 09:29:00,
2013-06-11 04:34:00,76.6,54.9,29.80,SE,133,6.0,12.0,47,0.00,,---,0.00,VWS V14.01,2013-06-11 09:34:00,
2013-06-11 04:39:00,76.7,55.0,29.80,SE,139,10.0,12.0,47,0.00,,---,0.00,VWS V14.01,2013-06-11 09:39:00,
2013-06-11 04:44:00,76.8,55.1,29.81,SE,124,9.0,14.0,47,0.00,,---,0.00,VWS V14.01,2013-06-11 09:44:00,
2013-06-11 04:49:00,76.8,55.7,29.81,SSW,203,11.0,14.0,48,0.00,,---,0.00,VWS V14.01,2013-06-11 09:49:00,
2013-06-11 04:54:00,76.6,55.5,29.81,SE,146,8.0,14.0,48,0.00,,---,0.00,VWS V14.01,2013-06-11 09:54:00,
2013-06-11 04:59:00,76.4,55.8,29.81,SSE,149,10.0,14.0,49,0.00,,---,0.00,VWS V14.01,2013-06-11 09:59:00,
2013-06-11 05:04:00,76.2,55.7,29.81,SSE,155,6.0,11.0,49,0.00,,---,0.00,VWS V14.01,2013-06-11 10:04:00,
2013-06-11 05:10:00,75.9,56.0,29.81,ESE,117,7.0,11.0,50,0.00,,---,0.00,VWS V14.01,2013-06-11 10:10:00,
2013-06-11 05:15:00,75.8,55.9,29.81,SE,127,9.0,12.0,50,0.00,,---,0.00,VWS V14.01,2013-06-11 10:15:00,
2013-06-11 05:20:00,75.7,56.3,29.81,SE,142,7.0,12.0,51,0.00,,---,0.00,VWS V14.01,2013-06-11 10:20:00,
2013-06-11 05:25:00,75.3,55.9,29.81,South,172,8.0,12.0,51,0.00,,---,0.00,VWS V14.01,2013-06-11 10:25:00,
2013-06-11 05:30:00,75.0,56.2,29.81,South,172,6.0,12.0,52,0.00,,---,0.00,VWS V14.01,2013-06-11 10:30:00,
2013-06-11 05:35:00,74.6,56.4,29.82,SSE,148,6.0,9.0,53,0.00,,---,0.00,VWS V14.01,2013-06-11 10:35:00,
2013-06-11 05:40:00,74.4,56.2,29.82,SE,124,5.0,10.0,53,0.00,,---,0.00,VWS V14.01,2013-06-11 10:40:00,
2013-06-11 05:45:00,74.2,56.5,29.82,SE,124,5.0,10.0,54,0.00,,---,0.00,VWS V14.01,2013-06-11 10:45:00,
2013-06-11 05:50:00,74.0,56.8,29.82,SSE,161,6.0,10.0,55,0.00,,---,0.00,VWS V14.01,2013-06-11 10:50:00,
2013-06-11 05:55:00,73.9,56.7,29.82,South,170,9.0,11.0,55,0.00,,---,0.00,VWS V14.01,2013-06-11 10:55:00,
2013-06-11 06:00:00,73.9,56.7,29.81,ESE,108,10.0,12.0,55,0.00,,---,0.00,VWS V14.01,2013-06-11 11:00:00,
2013-06-11 06:05:00,73.8,56.6,29.82,SE,132,4.0,9.0,55,0.00,,---,0.00,VWS V14.01,2013-06-11 11:05:00,
2013-06-11 06:10:00,73.8,57.1,29.82,SE,141,6.0,9.0,56,0.00,,---,0.00,VWS V14.01,2013-06-11 11:10:00,
2013-06-11 06:15:00,73.7,57.0,29.82,SSE,167,4.0,11.0,56,0.00,,---,0.00,VWS V14.01,2013-06-11 11:15:00,
2013-06-11 06:20:00,73.7,57.0,29.82,South,179,4.0,11.0,56,0.00,,---,0.00,VWS V14.01,2013-06-11 11:20:00,
2013-06-11 06:25:00,73.2,57.1,29.82,SE,127,6.0,11.0,57,0.00,,---,0.00,VWS V14.01,2013-06-11 11:25:00,
2013-06-11 06:30:00,73.3,57.7,29.82,SSE,162,6.0,11.0,58,0.00,,---,0.00,VWS V14.01,2013-06-11 11:30:00,
2013-06-11 06:36:00,73.4,57.3,29.82,South,170,8.0,9.0,57,0.00,,---,0.00,VWS V14.01,2013-06-11 11:36:00,
2013-06-11 06:41:00,73.6,57.4,29.82,SSE,160,9.0,11.0,57,0.00,,---,0.00,VWS V14.01,2013-06-11 11:41:00,
2013-06-11 06:46:00,73.9,57.7,29.83,SSE,150,6.0,11.0,57,0.00,,---,0.00,VWS V14.01,2013-06-11 11:46:00,
2013-06-11 06:51:00,74.2,57.5,29.83,SE,136,6.0,11.0,56,0.00,,---,0.00,VWS V14.01,2013-06-11 11:51:00,
2013-06-11 06:56:00,74.5,57.8,29.83,SSE,162,4.0,11.0,56,0.00,,---,0.00,VWS V14.01,2013-06-11 11:56:00,
2013-06-11 07:01:00,74.7,58.0,29.83,South,179,4.0,6.0,56,0.00,,---,0.00,VWS V14.01,2013-06-11 12:01:00,
2013-06-11 07:06:00,74.6,58.4,29.84,SSW,211,6.0,8.0,57,0.00,,---,0.00,VWS V14.01,2013-06-11 12:06:00,
2013-06-11 07:11:00,74.2,58.5,29.84,SE,136,4.0,8.0,58,0.00,,---,0.00,VWS V14.01,2013-06-11 12:11:00,
2013-06-11 07:16:00,73.6,59.3,29.84,SSW,205,3.0,8.0,61,0.00,,---,0.00,VWS V14.01,2013-06-11 12:16:00,
2013-06-11 07:22:00,73.9,59.6,29.84,SSW,206,2.0,8.0,61,0.00,,---,0.00,VWS V14.01,2013-06-11 12:22:00,
2013-06-11 07:27:00,74.4,59.6,29.85,SSW,195,4.0,8.0,60,0.00,,---,0.00,VWS V14.01,2013-06-11 12:27:00,
2013-06-11 07:32:00,75.1,59.3,29.84,SSW,201,3.0,6.0,58,0.00,,---,0.00,VWS V14.01,2013-06-11 12:32:00,
2013-06-11 07:37:00,75.8,59.5,29.85,South,179,5.0,8.0,57,0.00,,---,0.00,VWS V14.01,2013-06-11 12:37:00,
2013-06-11 07:42:00,76.4,59.6,29.85,SE,145,4.0,9.0,56,0.00,,---,0.00,VWS V14.01,2013-06-11 12:42:00,
2013-06-11 07:47:00,76.8,59.4,29.85,SE,136,4.0,9.0,55,0.00,,---,0.00,VWS V14.01,2013-06-11 12:47:00,
2013-06-11 07:52:00,77.4,60.0,29.85,SSE,158,7.0,9.0,55,0.00,,---,0.00,VWS V14.01,2013-06-11 12:52:00,
2013-06-11 07:57:00,77.6,59.7,29.85,SSE,147,7.0,11.0,54,0.00,,---,0.00,VWS V14.01,2013-06-11 12:57:00,
2013-06-11 08:02:00,77.8,59.8,29.85,SSE,166,5.0,8.0,54,0.00,,---,0.00,VWS V14.01,2013-06-11 13:02:00,
2013-06-11 08:08:00,78.2,60.2,29.85,SSE,165,10.0,10.0,54,0.00,,---,0.00,VWS V14.01,2013-06-11 13:08:00,
2013-06-11 08:13:00,78.4,60.4,29.85,SE,140,7.0,10.0,54,0.00,,---,0.00,VWS V14.01,2013-06-11 13:13:00,
2013-06-11 08:18:00,78.5,60.5,29.85,SSE,155,8.0,12.0,54,0.00,,---,0.00,VWS V14.01,2013-06-11 13:18:00,
2013-06-11 08:23:00,78.8,60.8,29.85,SSE,158,7.0,12.0,54,0.00,,---,0.00,VWS V14.01,2013-06-11 13:23:00,
2013-06-11 08:28:00,79.2,61.1,29.85,South,183,7.0,12.0,54,0.00,,---,0.00,VWS V14.01,2013-06-11 13:28:00,
2013-06-11 08:33:00,79.5,61.9,29.86,SSE,168,7.0,9.0,55,0.00,,---,0.00,VWS V14.01,2013-06-11 13:33:00,
2013-06-11 08:38:00,80.1,62.0,29.86,SSW,204,10.0,11.0,54,0.00,,---,0.00,VWS V14.01,2013-06-11 13:38:00,
2013-06-11 08:43:00,80.3,61.6,29.86,SSE,159,9.0,11.0,53,0.00,,---,0.00,VWS V14.01,2013-06-11 13:43:00,
2013-06-11 08:48:00,80.7,62.5,29.86,SE,140,4.0,14.0,54,0.00,,---,0.00,VWS V14.01,2013-06-11 13:48:00,
2013-06-11 08:53:00,81.2,63.0,29.86,SSE,158,6.0,14.0,54,0.00,,---,0.00,VWS V14.01,2013-06-11 13:53:00,
2013-06-11 08:58:00,81.9,63.1,29.86,South,172,7.0,14.0,53,0.00,,---,0.00,VWS V14.01,2013-06-11 13:58:00,
2013-06-11 09:03:00,82.3,62.9,29.86,SSW,194,10.0,13.0,52,0.00,,---,0.00,VWS V14.01,2013-06-11 14:03:00,
2013-06-11 09:09:00,82.5,63.1,29.86,South,169,7.0,15.0,52,0.00,,---,0.00,VWS V14.01,2013-06-11 14:09:00,
2013-06-11 09:14:00,83.1,63.1,29.86,SSE,159,11.0,15.0,51,0.00,,---,0.00,VWS V14.01,2013-06-11 14:14:00,
2013-06-11 09:19:00,83.2,63.2,29.86,SSW,200,8.0,15.0,51,0.00,,---,0.00,VWS V14.01,2013-06-11 14:19:00,
2013-06-11 09:24:00,83.6,63.6,29.86,SSE,163,8.0,15.0,51,0.00,,---,0.00,VWS V14.01,2013-06-11 14:24:00,
2013-06-11 09:29:00,84.0,63.9,29.86,SE,146,7.0,15.0,51,0.00,,---,0.00,VWS V14.01,2013-06-11 14:29:00,
2013-06-11 09:34:00,84.3,64.2,29.85,South,180,9.0,16.0,51,0.00,,---,0.00,VWS V14.01,2013-06-11 14:34:00,
2013-06-11 09:39:00,84.7,65.1,29.85,SSE,159,7.0,16.0,52,0.00,,---,0.00,VWS V14.01,2013-06-11 14:39:00,
2013-06-11 09:44:00,85.1,65.0,29.85,South,171,6.0,16.0,51,0.00,,---,0.00,VWS V14.01,2013-06-11 14:44:00,
2013-06-11 09:49:00,85.4,64.7,29.85,SSW,195,9.0,16.0,50,0.00,,---,0.00,VWS V14.01,2013-06-11 14:49:00,
2013-06-11 09:55:00,85.8,65.6,29.85,SSW,210,11.0,16.0,51,0.00,,---,0.00,VWS V14.01,2013-06-11 14:55:00,
2013-06-11 10:00:00,86.2,66.0,29.85,South,173,8.0,16.0,51,0.00,,---,0.00,VWS V14.01,2013-06-11 15:00:00,
2013-06-11 10:05:00,86.7,66.4,29.85,SSW,201,5.0,13.0,51,0.00,,---,0.00,VWS V14.01,2013-06-11 15:05:00,
2013-06-11 10:10:00,86.9,66.0,29.85,SSW,208,14.0,18.0,50,0.00,,---,0.00,VWS V14.01,2013-06-11 15:10:00,
2013-06-11 10:15:00,87.0,66.1,29.85,SW,214,9.0,18.0,50,0.00,,---,0.00,VWS V14.01,2013-06-11 15:15:00,
2013-06-11 10:20:00,87.2,66.3,29.85,SSE,164,7.0,18.0,50,0.00,,---,0.00,VWS V14.01,2013-06-11 15:20:00,
2013-06-11 10:25:00,87.4,65.9,29.85,South,171,8.0,18.0,49,0.00,,---,0.00,VWS V14.01,2013-06-11 15:25:00,
2013-06-11 10:30:00,87.6,66.1,29.85,SSE,158,12.0,19.0,49,0.00,,---,0.00,VWS V14.01,2013-06-11 15:30:00,
2013-06-11 10:35:00,87.7,66.2,29.85,SE,139,6.0,16.0,49,0.00,,---,0.00,VWS V14.01,2013-06-11 15:35:00,
2013-06-11 10:40:00,87.9,66.9,29.85,SSE,153,9.0,16.0,50,0.00,,---,0.00,VWS V14.01,2013-06-11 15:40:00,
2013-06-11 10:45:00,88.5,66.3,29.85,SE,145,10.0,16.0,48,0.00,,---,0.00,VWS V14.01,2013-06-11 15:45:00,
2013-06-11 10:51:00,88.6,66.4,29.85,SSW,198,6.0,17.0,48,0.00,,---,0.00,VWS V14.01,2013-06-11 15:51:00,
2013-06-11 10:56:00,88.7,66.5,29.85,South,176,7.0,17.0,48,0.00,,---,0.00,VWS V14.01,2013-06-11 15:56:00,
2013-06-11 11:01:00,89.1,66.9,29.84,South,174,13.0,13.0,48,0.00,,---,0.00,VWS V14.01,2013-06-11 16:01:00,
2013-06-11 11:06:00,89.3,66.4,29.85,SSE,159,11.0,14.0,47,0.00,,---,0.00,VWS V14.01,2013-06-11 16:06:00,
2013-06-11 11:11:00,89.3,66.4,29.85,SSE,159,8.0,18.0,47,0.00,,---,0.00,VWS V14.01,2013-06-11 16:11:00,
2013-06-11 11:16:00,89.5,66.6,29.84,SSW,203,12.0,18.0,47,0.00,,---,0.00,VWS V14.01,2013-06-11 16:16:00,
2013-06-11 11:21:00,90.0,67.7,29.84,WSW,245,11.0,18.0,48,0.00,,---,0.00,VWS V14.01,2013-06-11 16:21:00,
2013-06-11 11:26:00,90.1,67.2,29.84,South,172,8.0,18.0,47,0.00,,---,0.00,VWS V14.01,2013-06-11 16:26:00,
2013-06-11 11:31:00,90.4,66.8,29.84,SSW,212,10.0,11.0,46,0.00,,---,0.00,VWS V14.01,2013-06-11 16:31:00,
2013-06-11 11:37:00,90.5,66.9,29.84,SSW,197,7.0,18.0,46,0.00,,---,0.00,VWS V14.01,2013-06-11 16:37:00,
2013-06-11 11:42:00,90.9,67.3,29.85,South,180,9.0,18.0,46,0.00,,---,0.00,VWS V14.01,2013-06-11 16:42:00,
2013-06-11 11:47:00,90.9,66.6,29.85,South,174,15.0,18.0,45,0.00,,---,0.00,VWS V14.01,2013-06-11 16:47:00,
2013-06-11 11:52:00,91.1,66.8,29.85,SSW,202,7.0,20.0,45,0.00,,---,0.00,VWS V14.01,2013-06-11 16:52:00,
2013-06-11 11:57:00,91.5,67.8,29.85,SW,214,9.0,20.0,46,0.00,,---,0.00,VWS V14.01,2013-06-11 16:57:00,
2013-06-11 12:02:00,91.8,67.4,29.85,South,186,8.0,10.0,45,0.00,,---,0.00,VWS V14.01,2013-06-11 17:02:00,
2013-06-11 12:07:00,92.1,67.1,29.85,SSW,202,9.0,18.0,44,0.00,,---,0.00,VWS V14.01,2013-06-11 17:07:00,
2013-06-11 12:12:00,92.0,66.3,29.84,SSW,193,9.0,18.0,43,0.00,,---,0.00,VWS V14.01,2013-06-11 17:12:00,
2013-06-11 12:17:00,92.1,66.4,29.84,South,179,10.0,18.0,43,0.00,,---,0.00,VWS V14.01,2013-06-11 17:17:00,
2013-06-11 12:23:00,92.3,66.6,29.84,SSW,200,8.0,18.0,43,0.00,,---,0.00,VWS V14.01,2013-06-11 17:23:00,
2013-06-11 12:28:00,92.3,65.2,29.84,SSE,165,7.0,18.0,41,0.00,,---,0.00,VWS V14.01,2013-06-11 17:28:00,
2013-06-11 12:33:00,92.8,65.7,29.84,SSW,201,9.0,15.0,41,0.00,,---,0.00,VWS V14.01,2013-06-11 17:33:00,
2013-06-11 12:38:00,92.9,65.0,29.84,SSE,157,6.0,17.0,40,0.00,,---,0.00,VWS V14.01,2013-06-11 17:38:00,
2013-06-11 12:43:00,93.0,65.1,29.84,South,176,10.0,17.0,40,0.00,,---,0.00,VWS V14.01,2013-06-11 17:43:00,
2013-06-11 12:48:00,93.2,66.0,29.83,SW,222,12.0,17.0,41,0.00,,---,0.00,VWS V14.01,2013-06-11 17:48:00,
2013-06-11 12:53:00,93.8,67.2,29.83,SSW,211,10.0,17.0,42,0.00,,---,0.00,VWS V14.01,2013-06-11 17:53:00,
2013-06-11 12:58:00,94.2,64.0,29.83,SSE,148,8.0,17.0,37,0.00,,---,0.00,VWS V14.01,2013-06-11 17:58:00,
2013-06-11 13:03:00,94.4,65.7,29.83,South,190,14.0,15.0,39,0.00,,---,0.00,VWS V14.01,2013-06-11 18:03:00,
2013-06-11 13:08:00,94.2,62.4,29.83,SSE,148,7.0,16.0,35,0.00,,---,0.00,VWS V14.01,2013-06-11 18:08:00,
2013-06-11 13:14:00,94.2,62.4,29.83,SSE,160,11.0,17.0,35,0.00,,---,0.00,VWS V14.01,2013-06-11 18:14:00,
2013-06-11 13:19:00,94.2,62.4,29.83,SSE,150,13.0,20.0,35,0.00,,---,0.00,VWS V14.01,2013-06-11 18:19:00,
2013-06-11 13:24:00,94.4,63.4,29.83,South,180,6.0,20.0,36,0.00,,---,0.00,VWS V14.01,2013-06-11 18:24:00,
2013-06-11 13:29:00,94.7,62.0,29.83,SSW,205,7.0,20.0,34,0.00,,---,0.00,VWS V14.01,2013-06-11 18:29:00,
2013-06-11 13:34:00,94.9,62.2,29.82,SSE,162,12.0,20.0,34,0.00,,---,0.00,VWS V14.01,2013-06-11 18:34:00,
2013-06-11 13:39:00,94.7,63.6,29.82,SSW,197,10.0,20.0,36,0.00,,---,0.00,VWS V14.01,2013-06-11 18:39:00,
2013-06-11 13:44:00,95.0,62.3,29.82,SE,142,9.0,20.0,34,0.00,,---,0.00,VWS V14.01,2013-06-11 18:44:00,
2013-06-11 13:49:00,95.4,61.8,29.82,SSW,202,10.0,20.0,33,0.00,,---,0.00,VWS V14.01,2013-06-11 18:49:00,
2013-06-11 13:54:00,95.2,60.7,29.81,South,191,10.0,20.0,32,0.00,,---,0.00,VWS V14.01,2013-06-11 18:54:00,
2013-06-11 14:00:00,95.4,61.8,29.81,SSE,155,7.0,20.0,33,0.00,,---,0.00,VWS V14.01,2013-06-11 19:00:00,
2013-06-11 14:05:00,95.5,61.0,29.81,SE,146,9.0,15.0,32,0.00,,---,0.00,VWS V14.01,2013-06-11 19:05:00,
2013-06-11 14:10:00,95.8,61.2,29.81,SSW,193,10.0,20.0,32,0.00,,---,0.00,VWS V14.01,2013-06-11 19:10:00,
2013-06-11 14:15:00,95.5,61.0,29.81,South,176,13.0,20.0,32,0.00,,---,0.00,VWS V14.01,2013-06-11 19:15:00,
2013-06-11 14:20:00,95.5,61.0,29.80,SSE,158,7.0,21.0,32,0.00,,---,0.00,VWS V14.01,2013-06-11 19:20:00,
2013-06-11 14:25:00,96.0,61.4,29.80,SSE,149,8.0,21.0,32,0.00,,---,0.00,VWS V14.01,2013-06-11 19:25:00,
2013-06-11 14:30:00,96.4,61.8,29.80,ESE,108,14.0,21.0,32,0.00,,---,0.00,VWS V14.01,2013-06-11 19:30:00,
2013-06-11 14:35:00,96.4,59.9,29.80,South,177,8.0,19.0,30,0.00,,---,0.00,VWS V14.01,2013-06-11 19:35:00,
2013-06-11 14:40:00,96.5,61.8,29.79,South,188,15.0,19.0,32,0.00,,---,0.00,VWS V14.01,2013-06-11 19:40:00,
2013-06-11 14:45:00,96.7,60.2,29.79,SSE,162,12.0,19.0,30,0.00,,---,0.00,VWS V14.01,2013-06-11 19:45:00,
2013-06-11 14:50:00,96.4,59.9,29.79,South,173,8.0,20.0,30,0.00,,---,0.00,VWS V14.01,2013-06-11 19:50:00,
2013-06-11 14:56:00,96.6,61.0,29.79,South,190,9.0,20.0,31,0.00,,---,0.00,VWS V14.01,2013-06-11 19:56:00,
2013-06-11 15:01:00,96.8,60.3,29.79,SSW,198,13.0,13.0,30,0.00,,---,0.00,VWS V14.01,2013-06-11 20:01:00,
2013-06-11 15:06:00,96.5,61.0,29.79,SSE,148,8.0,29.0,31,0.00,,---,0.00,VWS V14.01,2013-06-11 20:06:00,
2013-06-11 15:11:00,96.5,60.0,29.79,SW,217,11.0,29.0,30,0.00,,---,0.00,VWS V14.01,2013-06-11 20:11:00,
2013-06-11 15:16:00,96.6,60.1,29.78,SSE,148,7.0,29.0,30,0.00,,---,0.00,VWS V14.01,2013-06-11 20:16:00,
2013-06-11 15:22:00,97.1,60.5,29.78,SE,136,18.0,29.0,30,0.00,,---,0.00,VWS V14.01,2013-06-11 20:22:00,
2013-06-11 15:27:00,96.9,59.4,29.78,SSW,195,8.0,29.0,29,0.00,,---,0.00,VWS V14.01,2013-06-11 20:27:00,
2013-06-11 15:32:00,97.0,58.5,29.78,South,189,14.0,25.0,28,0.00,,---,0.00,VWS V14.01,2013-06-11 20:32:00,
2013-06-11 15:37:00,97.0,58.5,29.77,SW,217,13.0,25.0,28,0.00,,---,0.00,VWS V14.01,2013-06-11 20:37:00,
2013-06-11 15:42:00,97.1,59.6,29.77,South,171,5.0,25.0,29,0.00,,---,0.00,VWS V14.01,2013-06-11 20:42:00,
2013-06-11 15:47:00,97.3,57.8,29.77,SSW,193,11.0,25.0,27,0.00,,---,0.00,VWS V14.01,2013-06-11 20:47:00,
2013-06-11 15:52:00,97.1,58.6,29.77,SSE,149,13.0,25.0,28,0.00,,---,0.00,VWS V14.01,2013-06-11 20:52:00,
2013-06-11 15:57:00,97.4,60.8,29.77,South,179,10.0,25.0,30,0.00,,---,0.00,VWS V14.01,2013-06-11 20:57:00,
2013-06-11 16:02:00,97.2,58.7,29.77,SSE,153,12.0,17.0,28,0.00,,---,0.00,VWS V14.01,2013-06-11 21:02:00,
2013-06-11 16:07:00,97.5,60.9,29.77,SSW,211,10.0,17.0,30,0.00,,---,0.00,VWS V14.01,2013-06-11 21:07:00,
2013-06-11 16:12:00,97.5,59.9,29.77,South,169,11.0,17.0,29,0.00,,---,0.00,VWS V14.01,2013-06-11 21:12:00,
2013-06-11 16:18:00,97.6,61.0,29.76,South,179,15.0,19.0,30,0.00,,---,0.00,VWS V14.01,2013-06-11 21:18:00,
2013-06-11 16:23:00,97.3,59.8,29.76,South,172,12.0,21.0,29,0.00,,---,0.00,VWS V14.01,2013-06-11 21:23:00,
2013-06-11 16:28:00,97.6,60.0,29.76,SSE,155,5.0,21.0,29,0.00,,---,0.00,VWS V14.01,2013-06-11 21:28:00,
2013-06-11 16:33:00,97.7,61.0,29.76,SE,142,11.0,16.0,30,0.00,,---,0.00,VWS V14.01,2013-06-11 21:33:00,
2013-06-11 16:38:00,97.5,59.0,29.76,SSE,158,16.0,24.0,28,0.00,,---,0.00,VWS V14.01,2013-06-11 21:38:00,
2013-06-11 16:43:00,97.4,59.8,29.76,South,181,15.0,24.0,29,0.00,,---,0.00,VWS V14.01,2013-06-11 21:43:00,
2013-06-11 16:48:00,97.2,61.5,29.76,SSW,193,6.0,24.0,31,0.00,,---,0.00,VWS V14.01,2013-06-11 21:48:00,
2013-06-11 16:53:00,97.3,58.8,29.76,South,180,11.0,24.0,28,0.00,,---,0.00,VWS V14.01,2013-06-11 21:53:00,
2013-06-11 16:58:00,97.5,59.9,29.75,SSW,203,16.0,24.0,29,0.00,,---,0.00,VWS V14.01,2013-06-11 21:58:00,
2013-06-11 17:03:00,97.3,59.8,29.76,South,188,6.0,15.0,29,0.00,,---,0.00,VWS V14.01,2013-06-11 22:03:00,
2013-06-11 17:08:00,97.6,60.0,29.75,South,174,10.0,15.0,29,0.00,,---,0.00,VWS V14.01,2013-06-11 22:08:00,
2013-06-11 17:13:00,97.7,59.1,29.75,SSW,200,14.0,17.0,28,0.00,,---,0.00,VWS V14.01,2013-06-11 22:13:00,
2013-06-11 17:18:00,97.5,59.0,29.75,ESE,118,8.0,22.0,28,0.00,,---,0.00,VWS V14.01,2013-06-11 22:18:00,
2013-06-11 17:24:00,97.4,59.8,29.74,SSE,158,12.0,22.0,29,0.00,,---,0.00,VWS V14.01,2013-06-11 22:24:00,
2013-06-11 17:29:00,97.6,59.0,29.75,SSE,167,13.0,22.0,28,0.00,,---,0.00,VWS V14.01,2013-06-11 22:29:00,
2013-06-11 17:34:00,97.5,59.9,29.74,ESE,117,13.0,18.0,29,0.00,,---,0.00,VWS V14.01,2013-06-11 22:34:00,
2013-06-11 17:39:00,97.5,57.9,29.74,SE,131,15.0,18.0,27,0.00,,---,0.00,VWS V14.01,2013-06-11 22:39:00,
2013-06-11 17:44:00,97.5,59.9,29.74,SE,135,9.0,19.0,29,0.00,,---,0.00,VWS V14.01,2013-06-11 22:44:00,
2013-06-11 17:49:00,97.5,59.9,29.74,SSW,208,13.0,19.0,29,0.00,,---,0.00,VWS V14.01,2013-06-11 22:49:00,
2013-06-11 17:54:00,97.7,59.1,29.74,SSW,205,9.0,19.0,28,0.00,,---,0.00,VWS V14.01,2013-06-11 22:54:00,
2013-06-11 17:59:00,97.7,60.1,29.73,SSE,149,8.0,21.0,29,0.00,,---,0.00,VWS V14.01,2013-06-11 22:59:00,
2013-06-11 18:04:00,97.6,60.0,29.73,South,169,7.0,15.0,29,0.00,,---,0.00,VWS V14.01,2013-06-11 23:04:00,
2013-06-11 18:09:00,97.7,59.1,29.73,South,172,10.0,15.0,28,0.00,,---,0.00,VWS V14.01,2013-06-11 23:09:00,
2013-06-11 18:15:00,97.4,58.9,29.73,SE,146,14.0,23.0,28,0.00,,---,0.00,VWS V14.01,2013-06-11 23:15:00,
2013-06-11 18:20:00,97.3,59.8,29.73,SE,145,21.0,23.0,29,0.00,,---,0.00,VWS V14.01,2013-06-11 23:20:00,
2013-06-11 18:25:00,97.2,59.7,29.72,WSW,238,13.0,23.0,29,0.00,,---,0.00,VWS V14.01,2013-06-11 23:25:00,
2013-06-11 18:30:00,97.3,59.8,29.72,SSE,147,15.0,23.0,29,0.00,,---,0.00,VWS V14.01,2013-06-11 23:30:00,
2013-06-11 18:35:00,97.4,58.9,29.72,SSE,155,12.0,20.0,28,0.00,,---,0.00,VWS V14.01,2013-06-11 23:35:00,
2013-06-11 18:40:00,97.3,58.8,29.72,SSW,193,12.0,20.0,28,0.00,,---,0.00,VWS V14.01,2013-06-11 23:40:00,
2013-06-11 18:45:00,97.2,59.7,29.72,South,187,16.0,20.0,29,0.00,,---,0.00,VWS V14.01,2013-06-11 23:45:00,
2013-06-11 18:50:00,97.1,59.6,29.72,SE,146,15.0,22.0,29,0.00,,---,0.00,VWS V14.01,2013-06-11 23:50:00,
2013-06-11 18:56:00,97.0,58.5,29.72,South,185,11.0,22.0,28,0.00,,---,0.00,VWS V14.01,2013-06-11 23:56:00,
2013-06-11 19:01:00,96.9,58.4,29.72,SE,145,12.0,12.0,28,0.00,,---,0.00,VWS V14.01,2013-06-12 00:01:00,
2013-06-11 19:06:00,97.0,58.5,29.72,SSE,166,16.0,20.0,28,0.00,,---,0.00,VWS V14.01,2013-06-12 00:06:00,
2013-06-11 19:11:00,96.9,59.4,29.72,South,181,14.0,23.0,29,0.00,,---,0.00,VWS V14.01,2013-06-12 00:11:00,
2013-06-11 19:16:00,96.7,59.2,29.72,SSE,158,11.0,23.0,29,0.00,,---,0.00,VWS V14.01,2013-06-12 00:16:00,
2013-06-11 19:22:00,96.5,61.0,29.72,SSW,198,8.0,23.0,31,0.00,,---,0.00,VWS V14.01,2013-06-12 00:22:00,
2013-06-11 19:27:00,96.4,60.9,29.72,SSE,152,15.0,23.0,31,0.00,,---,0.00,VWS V14.01,2013-06-12 00:27:00,
2013-06-11 19:32:00,96.2,59.8,29.72,SE,135,11.0,17.0,30,0.00,,---,0.00,VWS V14.01,2013-06-12 00:32:00,
2013-06-11 19:37:00,96.1,59.7,29.72,SSE,151,13.0,17.0,30,0.00,,---,0.00,VWS V14.01,2013-06-12 00:37:00,
2013-06-11 19:42:00,96.1,60.6,29.72,SSE,162,5.0,17.0,31,0.00,,---,0.00,VWS V14.01,2013-06-12 00:42:00,
2013-06-11 19:47:00,95.8,60.3,29.72,SSW,207,10.0,19.0,31,0.00,,---,0.00,VWS V14.01,2013-06-12 00:47:00,
2013-06-11 19:52:00,95.6,61.9,29.72,SE,134,12.0,20.0,33,0.00,,---,0.00,VWS V14.01,2013-06-12 00:52:00,
2013-06-11 19:57:00,95.3,62.5,29.72,SSE,147,10.0,20.0,34,0.00,,---,0.00,VWS V14.01,2013-06-12 00:57:00,
2013-06-11 20:02:00,94.8,62.1,29.72,SE,143,11.0,18.0,34,0.00,,---,0.00,VWS V14.01,2013-06-12 01:02:00,
2013-06-11 20:07:00,94.5,62.6,29.72,SE,143,15.0,19.0,35,0.00,,---,0.00,VWS V14.01,2013-06-12 01:07:00,
2013-06-11 20:12:00,94.2,62.4,29.73,ESE,121,13.0,19.0,35,0.00,,---,0.00,VWS V14.01,2013-06-12 01:12:00,
2013-06-11 20:17:00,94.0,63.0,29.73,SSE,159,11.0,20.0,36,0.00,,---,0.00,VWS V14.01,2013-06-12 01:17:00,
2013-06-11 20:23:00,93.7,62.7,29.73,ESE,111,11.0,22.0,36,0.00,,---,0.00,VWS V14.01,2013-06-12 01:23:00,
2013-06-11 20:28:00,93.3,63.2,29.73,SSE,162,5.0,22.0,37,0.00,,---,0.00,VWS V14.01,2013-06-12 01:28:00,
2013-06-11 20:33:00,92.8,62.7,29.73,SE,134,10.0,14.0,37,0.00,,---,0.00,VWS V14.01,2013-06-12 01:33:00,
2013-06-11 20:38:00,92.4,63.1,29.74,SSE,165,9.0,15.0,38,0.00,,---,0.00,VWS V14.01,2013-06-12 01:38:00,
2013-06-11 20:43:00,92.0,62.8,29.74,SE,137,14.0,15.0,38,0.00,,---,0.00,VWS V14.01,2013-06-12 01:43:00,
2013-06-11 20:48:00,91.5,63.1,29.74,South,169,9.0,15.0,39,0.00,,---,0.00,VWS V14.01,2013-06-12 01:48:00,
2013-06-11 20:53:00,91.0,63.3,29.74,SE,138,7.0,15.0,40,0.00,,---,0.00,VWS V14.01,2013-06-12 01:53:00,
2013-06-11 20:58:00,90.5,62.9,29.73,South,173,6.0,15.0,40,0.00,,---,0.00,VWS V14.01,2013-06-12 01:58:00,
2013-06-11 21:03:00,90.3,62.7,29.74,SSE,162,9.0,13.0,40,0.00,,---,0.00,VWS V14.01,2013-06-12 02:03:00,
2013-06-11 21:08:00,90.2,61.9,29.74,SE,127,12.0,14.0,39,0.00,,---,0.00,VWS V14.01,2013-06-12 02:08:00,
2013-06-11 21:13:00,90.1,61.8,29.74,SE,134,10.0,14.0,39,0.00,,---,0.00,VWS V14.01,2013-06-12 02:13:00,
2013-06-11 21:18:00,89.9,61.7,29.74,SSE,155,8.0,15.0,39,0.00,,---,0.00,VWS V14.01,2013-06-12 02:18:00,
2013-06-11 21:23:00,89.7,60.7,29.74,SE,143,9.0,15.0,38,0.00,,---,0.00,VWS V14.01,2013-06-12 02:23:00,
2013-06-11 21:28:00,89.7,60.0,29.75,SE,143,5.0,15.0,37,0.00,,---,0.00,VWS V14.01,2013-06-12 02:28:00,
2013-06-11 21:33:00,89.5,59.8,29.75,SSE,155,7.0,14.0,37,0.00,,---,0.00,VWS V14.01,2013-06-12 02:33:00,
2013-06-11 21:39:00,89.2,60.3,29.75,SSE,156,9.0,14.0,38,0.00,,---,0.00,VWS V14.01,2013-06-12 02:39:00,
2013-06-11 21:44:00,88.8,59.9,29.75,SSE,162,11.0,14.0,38,0.00,,---,0.00,VWS V14.01,2013-06-12 02:44:00,
2013-06-11 21:49:00,88.4,59.6,29.76,SSE,168,11.0,14.0,38,0.00,,---,0.00,VWS V14.01,2013-06-12 02:49:00,
2013-06-11 21:54:00,88.1,59.3,29.76,SSE,149,8.0,15.0,38,0.00,,---,0.00,VWS V14.01,2013-06-12 02:54:00,
2013-06-11 21:59:00,87.9,59.2,29.76,SE,125,11.0,15.0,38,0.00,,---,0.00,VWS V14.01,2013-06-12 02:59:00,
2013-06-11 22:04:00,87.5,59.5,29.76,SE,134,5.0,10.0,39,0.00,,---,0.00,VWS V14.01,2013-06-12 03:04:00,
2013-06-11 22:09:00,87.2,59.2,29.76,SSE,153,6.0,13.0,39,0.00,,---,0.00,VWS V14.01,2013-06-12 03:09:00,
2013-06-11 22:14:00,87.2,59.2,29.77,ESE,120,6.0,13.0,39,0.00,,---,0.00,VWS V14.01,2013-06-12 03:14:00,
2013-06-11 22:19:00,86.7,60.2,29.77,ESE,119,6.0,13.0,41,0.00,,---,0.00,VWS V14.01,2013-06-12 03:19:00,
2013-06-11 22:25:00,86.4,60.6,29.77,SE,134,7.0,13.0,42,0.00,,---,0.00,VWS V14.01,2013-06-12 03:25:00,
2013-06-11 22:30:00,86.4,61.9,29.77,ESE,122,8.0,13.0,44,0.00,,---,0.00,VWS V14.01,2013-06-12 03:30:00,
2013-06-11 22:35:00,86.5,62.7,29.77,SE,132,10.0,15.0,45,0.00,,---,0.00,VWS V14.01,2013-06-12 03:35:00,
2013-06-11 22:40:00,86.5,63.3,29.77,SSE,152,11.0,15.0,46,0.00,,---,0.00,VWS V14.01,2013-06-12 03:40:00,
2013-06-11 22:45:00,86.2,63.0,29.77,ESE,117,8.0,16.0,46,0.00,,---,0.00,VWS V14.01,2013-06-12 03:45:00,
2013-06-11 22:50:00,85.9,64.0,29.78,South,174,7.0,16.0,48,0.00,,---,0.00,VWS V14.01,2013-06-12 03:50:00,
2013-06-11 22:55:00,85.7,64.4,29.78,South,172,7.0,16.0,49,0.00,,---,0.00,VWS V14.01,2013-06-12 03:55:00,
2013-06-11 23:00:00,85.6,64.3,29.78,SE,142,8.0,16.0,49,0.00,,---,0.00,VWS V14.01,2013-06-12 04:00:00,
2013-06-11 23:01:00,85.5,64.8,29.78,SSE,159,7.0,9.0,50,0.00,,---,0.00,VWS V14.01,2013-06-12 04:01:00,
2013-06-11 23:02:00,85.5,64.8,29.78,SSE,149,8.0,11.0,50,0.00,,---,0.00,VWS V14.01,2013-06-12 04:02:00,
2013-06-11 23:03:00,85.4,64.7,29.78,South,176,7.0,12.0,50,0.00,,---,0.00,VWS V14.01,2013-06-12 04:03:00,
2013-06-11 23:08:00,85.1,65.0,29.78,SSE,153,8.0,14.0,51,0.00,,---,0.00,VWS V14.01,2013-06-12 04:08:00,
2013-06-11 23:13:00,84.9,65.3,29.78,South,173,8.0,14.0,52,0.00,,---,0.00,VWS V14.01,2013-06-12 04:13:00,
2013-06-11 23:18:00,84.6,65.6,29.78,SE,129,6.0,14.0,53,0.00,,---,0.00,VWS V14.01,2013-06-12 04:18:00,
2013-06-11 23:23:00,84.4,65.9,29.78,SE,139,8.0,14.0,54,0.00,,---,0.00,VWS V14.01,2013-06-12 04:23:00,
2013-06-11 23:28:00,84.4,65.9,29.78,SE,129,7.0,14.0,54,0.00,,---,0.00,VWS V14.01,2013-06-12 04:28:00,
2013-06-11 23:33:00,84.3,66.4,29.78,SE,146,7.0,12.0,55,0.00,,---,0.00,VWS V14.01,2013-06-12 04:33:00,
2013-06-11 23:39:00,84.3,66.4,29.78,SE,128,9.0,13.0,55,0.00,,---,0.00,VWS V14.01,2013-06-12 04:39:00,
2013-06-11 23:44:00,84.2,66.3,29.77,SE,129,8.0,14.0,55,0.00,,---,0.00,VWS V14.01,2013-06-12 04:44:00,
2013-06-11 23:49:00,84.0,66.6,29.78,SE,141,8.0,14.0,56,0.00,,---,0.00,VWS V14.01,2013-06-12 04:49:00,
2013-06-11 23:54:00,83.9,66.5,29.77,SE,124,10.0,14.0,56,0.00,,---,0.00,VWS V14.01,2013-06-12 04:54:00,
2013-06-11 23:59:00,83.9,66.5,29.78,SE,129,8.0,16.0,56,0.00,,---,0.00,VWS V14.01,2013-06-12 04:59:00,